createdAt,value
2022-10-21T00:00:25.150Z,12.90
2022-10-21T00:03:17.016Z,11.70
2022-10-21T00:05:49.481Z,10.60
2022-10-21T00:08:22.188Z,11.00
2022-10-21T00:10:57.282Z,10.60
2022-10-21T00:13:31.543Z,10.60
2022-10-21T00:16:06.155Z,14.00
2022-10-21T00:18:39.810Z,13.40
2022-10-21T00:21:16.055Z,11.50
2022-10-21T00:23:48.419Z,12.80
2022-10-21T00:26:21.130Z,10.10
2022-10-21T00:28:58.080Z,12.60
2022-10-21T00:31:30.614Z,12.90
2022-10-21T00:34:02.562Z,13.10
2022-10-21T00:36:34.458Z,11.20
2022-10-21T00:39:06.554Z,12.60
2022-10-21T00:41:38.531Z,11.80
2022-10-21T00:44:13.005Z,10.80
2022-10-21T00:46:49.926Z,11.70
2022-10-21T00:49:26.237Z,13.50
2022-10-21T00:52:01.598Z,12.70
2022-10-21T00:54:34.379Z,13.10
2022-10-21T00:57:07.125Z,11.40
2022-10-21T00:59:43.242Z,34.90
2022-10-21T01:02:15.428Z,13.60
2022-10-21T01:04:48.900Z,60.30
2022-10-21T01:07:21.901Z,16.90
2022-10-21T01:09:53.980Z,12.60
2022-10-21T01:12:34.842Z,12.00
2022-10-21T01:15:17.521Z,9.20
2022-10-21T01:17:56.777Z,9.90
2022-10-21T01:20:51.647Z,14.00
2022-10-21T01:24:01.677Z,12.10
2022-10-21T01:27:13.253Z,12.20
2022-10-21T01:30:20.602Z,10.60
2022-10-21T01:33:32.505Z,10.20
2022-10-21T01:36:16.723Z,8.70
2022-10-21T01:39:00.025Z,9.90
2022-10-21T01:41:37.372Z,9.50
2022-10-21T01:44:18.080Z,7.90
2022-10-21T01:46:54.861Z,9.50
2022-10-21T01:49:31.538Z,10.00
2022-10-21T01:52:05.463Z,8.80
2022-10-21T01:54:41.051Z,9.10
2022-10-21T01:57:16.658Z,9.60
2022-10-21T01:59:50.926Z,9.40
2022-10-21T02:02:23.946Z,12.10
2022-10-21T02:04:57.828Z,10.90
2022-10-21T02:07:29.909Z,12.10
2022-10-21T02:10:01.959Z,10.50
2022-10-21T02:12:35.256Z,9.70
2022-10-21T02:15:12.641Z,10.50
2022-10-21T02:17:50.909Z,9.50
2022-10-21T02:20:25.742Z,8.90
2022-10-21T02:22:58.095Z,10.50
2022-10-21T02:25:36.003Z,9.60
2022-10-21T02:28:08.635Z,10.90
2022-10-21T02:30:46.207Z,9.70
2022-10-21T02:33:24.135Z,10.50
2022-10-21T02:36:05.595Z,9.90
2022-10-21T02:38:44.126Z,11.10
2022-10-21T02:41:18.967Z,11.50
2022-10-21T02:43:55.546Z,11.40
2022-10-21T02:46:36.001Z,9.50
2022-10-21T02:49:08.483Z,11.00
2022-10-21T02:51:41.305Z,9.50
2022-10-21T02:54:13.270Z,10.30
2022-10-21T02:56:45.328Z,11.00
2022-10-21T02:59:17.313Z,10.70
2022-10-21T03:01:49.230Z,10.40
2022-10-21T03:04:21.339Z,10.10
2022-10-21T03:06:53.275Z,10.00
2022-10-21T03:09:25.543Z,10.10
2022-10-21T03:11:57.518Z,10.90
2022-10-21T03:14:29.448Z,12.50
2022-10-21T03:17:01.382Z,13.50
2022-10-21T03:19:33.310Z,11.90
2022-10-21T03:22:05.283Z,11.90
2022-10-21T03:24:37.202Z,10.50
2022-10-21T03:27:09.251Z,10.20
2022-10-21T03:29:41.211Z,11.10
2022-10-21T03:32:13.173Z,14.20
2022-10-21T03:34:45.370Z,12.70
2022-10-21T03:37:17.666Z,12.80
2022-10-21T03:39:49.673Z,15.80
2022-10-21T03:42:21.629Z,18.20
2022-10-21T03:44:53.533Z,18.10
2022-10-21T03:47:25.572Z,20.50
2022-10-21T03:49:58.613Z,13.40
2022-10-21T03:52:30.726Z,11.80
2022-10-21T03:55:02.652Z,12.00
2022-10-21T03:57:34.683Z,12.70
2022-10-21T04:00:08.670Z,11.50
2022-10-21T04:02:49.606Z,16.30
2022-10-21T04:05:21.679Z,11.50
2022-10-21T04:07:53.687Z,12.20
2022-10-21T04:10:25.694Z,11.60
2022-10-21T04:12:57.783Z,10.90
2022-10-21T04:15:29.717Z,12.30
2022-10-21T04:18:02.152Z,11.90
2022-10-21T04:20:34.181Z,13.20
2022-10-21T04:23:06.389Z,12.20
2022-10-21T04:25:38.364Z,9.90
2022-10-21T04:28:10.625Z,10.00
2022-10-21T04:30:42.749Z,10.80
2022-10-21T04:33:14.746Z,14.60
2022-10-21T04:35:46.805Z,12.90
2022-10-21T04:38:18.906Z,15.50
2022-10-21T04:40:56.054Z,18.10
2022-10-21T04:43:28.655Z,17.00
2022-10-21T04:46:00.645Z,12.80
2022-10-21T04:48:32.766Z,13.60
2022-10-21T04:51:04.845Z,15.00
2022-10-21T04:53:36.830Z,12.40
2022-10-21T04:56:10.751Z,12.40
2022-10-21T04:58:42.859Z,11.80
2022-10-21T05:01:14.851Z,14.70
2022-10-21T05:03:46.966Z,17.80
2022-10-21T05:06:18.900Z,13.40
2022-10-21T05:08:51.071Z,9.70
2022-10-21T05:11:23.100Z,12.10
2022-10-21T05:13:55.134Z,11.30
2022-10-21T05:16:27.121Z,11.80
2022-10-21T05:18:59.156Z,11.80
2022-10-21T05:21:31.237Z,13.30
2022-10-21T05:24:03.383Z,11.70
2022-10-21T05:26:35.353Z,12.50
2022-10-21T05:29:07.328Z,12.80
2022-10-21T05:31:39.453Z,10.50
2022-10-21T05:34:11.547Z,9.90
2022-10-21T05:36:43.445Z,9.20
2022-10-21T05:39:15.394Z,10.30
2022-10-21T05:41:48.134Z,10.60
2022-10-21T05:44:20.415Z,11.30
2022-10-21T05:46:52.376Z,13.30
2022-10-21T05:49:24.458Z,12.80
2022-10-21T05:51:56.405Z,11.60
2022-10-21T05:54:28.742Z,12.70
2022-10-21T05:57:02.579Z,12.70
2022-10-21T05:59:34.728Z,12.90
2022-10-21T06:02:06.866Z,12.80
2022-10-21T06:04:38.990Z,10.90
2022-10-21T06:07:11.278Z,11.70
2022-10-21T06:09:43.262Z,15.60
2022-10-21T06:12:15.194Z,12.30
2022-10-21T06:14:47.140Z,11.70
2022-10-21T06:17:19.126Z,11.30
2022-10-21T06:19:51.265Z,12.20
2022-10-21T06:22:23.249Z,12.30
2022-10-21T06:24:55.450Z,12.10
2022-10-21T06:27:27.458Z,12.70
2022-10-21T06:29:59.407Z,11.90
2022-10-21T06:32:31.686Z,13.40
2022-10-21T06:35:03.619Z,11.00
2022-10-21T06:37:36.190Z,11.80
2022-10-21T06:40:11.986Z,12.10
2022-10-21T06:42:43.962Z,11.70
2022-10-21T06:45:16.027Z,12.00
2022-10-21T06:47:47.928Z,11.20
2022-10-21T06:50:20.817Z,12.60
2022-10-21T06:52:52.801Z,12.70
2022-10-21T06:55:25.021Z,12.60
2022-10-21T06:57:57.136Z,13.60
2022-10-21T07:03:05.916Z,12.80
2022-10-21T07:05:37.806Z,23.40
2022-10-21T07:08:12.111Z,17.70
2022-10-21T07:10:46.158Z,15.60
2022-10-21T07:13:20.166Z,15.40
2022-10-21T07:16:02.394Z,14.20
2022-10-21T07:18:36.996Z,16.30
2022-10-21T07:21:14.840Z,14.00
2022-10-21T07:23:51.279Z,11.90
2022-10-21T07:26:24.280Z,16.50
2022-10-21T07:28:58.867Z,13.50
2022-10-21T07:31:33.012Z,20.30
2022-10-21T07:34:06.925Z,29.20
2022-10-21T07:36:41.124Z,19.90
2022-10-21T07:39:15.600Z,17.60
2022-10-21T07:41:49.576Z,23.20
2022-10-21T07:44:23.893Z,22.10
2022-10-21T07:46:56.389Z,19.90
2022-10-21T07:49:28.302Z,12.30
2022-10-21T07:52:02.586Z,11.30
2022-10-21T07:54:34.770Z,16.30
2022-10-21T07:57:06.718Z,18.10
2022-10-21T07:59:39.384Z,15.50
2022-10-21T08:02:14.544Z,16.00
2022-10-21T08:04:46.550Z,13.40
2022-10-21T08:07:18.469Z,16.80
2022-10-21T08:09:50.495Z,15.30
2022-10-21T08:12:22.362Z,13.50
2022-10-21T08:14:54.400Z,14.20
2022-10-21T08:17:26.435Z,16.80
2022-10-21T08:19:58.375Z,15.90
2022-10-21T08:22:30.411Z,14.70
2022-10-21T08:25:02.371Z,17.20
2022-10-21T08:27:34.947Z,15.40
2022-10-21T08:30:08.023Z,15.80
2022-10-21T08:32:40.337Z,14.90
2022-10-21T08:35:14.579Z,14.30
2022-10-21T08:37:49.011Z,12.80
2022-10-21T08:40:21.599Z,15.80
2022-10-21T08:42:53.721Z,14.00
2022-10-21T08:45:36.809Z,15.00
2022-10-21T08:48:15.539Z,13.10
2022-10-21T08:50:51.843Z,13.70
2022-10-21T08:53:28.464Z,14.30
2022-10-21T08:56:07.570Z,15.50
2022-10-21T08:58:39.546Z,14.50
2022-10-21T09:01:24.693Z,12.90
2022-10-21T09:04:04.396Z,13.10
2022-10-21T09:06:49.107Z,13.40
2022-10-21T09:09:27.846Z,12.80
2022-10-21T09:12:10.157Z,13.00
2022-10-21T09:15:01.660Z,14.20
2022-10-21T09:17:57.655Z,12.90
2022-10-21T09:20:42.488Z,13.70
2022-10-21T09:23:38.492Z,14.10
2022-10-21T09:26:26.495Z,12.80
2022-10-21T09:29:02.521Z,13.10
2022-10-21T09:31:34.455Z,13.50
2022-10-21T09:34:16.687Z,12.80
2022-10-21T09:36:50.594Z,12.60
2022-10-21T09:39:29.549Z,12.20
2022-10-21T09:42:07.312Z,12.50
2022-10-21T09:44:46.981Z,15.20
2022-10-21T09:47:24.744Z,13.60
2022-10-21T09:50:09.167Z,13.70
2022-10-21T09:52:43.633Z,13.40
2022-10-21T09:55:17.358Z,15.70
2022-10-21T09:57:57.320Z,13.40
2022-10-21T10:00:48.135Z,16.60
2022-10-21T10:03:39.143Z,14.60
2022-10-21T10:06:11.569Z,14.90
2022-10-21T10:08:47.486Z,15.10
2022-10-21T10:11:22.647Z,12.40
2022-10-21T10:16:30.856Z,12.10
2022-10-21T10:19:18.818Z,12.30
2022-10-21T10:22:10.777Z,13.70
2022-10-21T10:24:43.868Z,18.00
2022-10-21T10:27:23.442Z,15.70
2022-10-21T10:30:00.643Z,15.80
2022-10-21T10:32:36.766Z,16.60
2022-10-21T10:35:18.875Z,19.10
2022-10-21T10:37:51.808Z,16.00
2022-10-21T10:40:27.496Z,19.20
2022-10-21T10:43:07.214Z,16.60
2022-10-21T10:45:39.222Z,16.20
2022-10-21T10:48:24.131Z,13.90
2022-10-21T10:50:58.209Z,15.40
2022-10-21T10:53:33.896Z,14.10
2022-10-21T10:56:19.900Z,18.10
2022-10-21T10:59:04.210Z,14.40
2022-10-21T11:01:40.628Z,14.00
2022-10-21T11:04:22.162Z,16.10
2022-10-21T11:07:02.060Z,17.30
2022-10-21T11:09:35.904Z,15.60
2022-10-21T11:12:12.859Z,14.20
2022-10-21T11:14:55.662Z,15.10
2022-10-21T11:17:33.523Z,16.80
2022-10-21T11:20:14.950Z,14.30
2022-10-21T11:22:55.032Z,15.00
2022-10-21T11:25:35.814Z,16.00
2022-10-21T11:28:21.049Z,17.40
2022-10-21T11:33:44.841Z,15.80
2022-10-21T11:36:28.099Z,18.60
2022-10-21T11:39:31.997Z,19.60
2022-10-21T11:42:15.210Z,22.60
2022-10-21T11:45:01.442Z,18.70
2022-10-21T11:47:43.369Z,25.00
2022-10-21T11:50:25.753Z,20.40
2022-10-21T11:53:14.860Z,17.40
2022-10-21T11:55:54.789Z,18.30
2022-10-21T11:58:39.515Z,17.70
2022-10-21T12:01:25.225Z,14.50
2022-10-21T12:04:30.472Z,17.00
2022-10-21T12:07:23.673Z,15.80
2022-10-21T12:10:00.541Z,17.80
2022-10-21T12:12:36.704Z,17.70
2022-10-21T12:15:19.313Z,23.40
2022-10-21T12:17:52.978Z,18.80
2022-10-21T12:20:28.095Z,18.30
2022-10-21T12:23:03.596Z,17.90
2022-10-21T12:25:42.914Z,17.20
2022-10-21T12:28:22.025Z,15.50
2022-10-21T12:31:00.130Z,16.90
2022-10-21T12:33:44.788Z,21.70
2022-10-21T12:36:37.322Z,18.40
2022-10-21T12:39:17.153Z,21.60
2022-10-21T12:41:49.906Z,18.70
2022-10-21T12:44:25.766Z,22.80
2022-10-21T12:47:02.797Z,18.80
2022-10-21T12:49:36.627Z,20.30
2022-10-21T12:52:15.533Z,73.90
2022-10-21T12:54:57.052Z,39.30
2022-10-21T12:57:32.126Z,22.60
2022-10-21T13:00:39.028Z,23.00
2022-10-21T13:03:13.642Z,25.20
2022-10-21T13:06:07.251Z,20.00
2022-10-21T13:08:54.832Z,20.00
2022-10-21T13:11:41.026Z,19.40
2022-10-21T13:14:35.380Z,20.10
2022-10-21T13:17:31.164Z,19.20
2022-10-21T13:20:38.514Z,20.60
2022-10-21T13:23:32.808Z,19.00
2022-10-21T13:26:24.247Z,18.10
2022-10-21T13:29:19.362Z,16.40
2022-10-21T13:32:28.122Z,16.50
2022-10-21T13:35:09.016Z,19.20
2022-10-21T13:37:43.943Z,18.90
2022-10-21T13:42:58.945Z,23.40
2022-10-21T13:45:34.321Z,20.70
2022-10-21T13:48:13.336Z,21.40
2022-10-21T13:50:47.173Z,18.30
2022-10-21T13:53:30.160Z,18.70
2022-10-21T13:56:05.149Z,16.30
2022-10-21T13:58:40.092Z,16.40
2022-10-21T14:01:14.579Z,17.50
2022-10-21T14:06:31.695Z,26.90
2022-10-21T14:09:08.236Z,20.60
2022-10-21T14:11:48.722Z,17.90
2022-10-21T14:14:25.755Z,19.90
2022-10-21T14:17:00.467Z,19.40
2022-10-21T14:19:37.904Z,22.40
2022-10-21T14:22:15.518Z,21.40
2022-10-21T14:24:50.382Z,18.90
2022-10-21T14:27:25.999Z,21.10
2022-10-21T14:29:59.387Z,20.90
2022-10-21T14:32:31.894Z,20.80
2022-10-21T14:35:17.790Z,20.10
2022-10-21T14:37:53.184Z,24.00
2022-10-21T14:40:31.979Z,31.50
2022-10-21T14:43:09.157Z,31.30
2022-10-21T14:45:49.243Z,57.20
2022-10-21T14:48:30.436Z,251.20
2022-10-21T14:51:06.794Z,95.60
2022-10-21T14:53:45.641Z,49.20
2022-10-21T14:56:21.963Z,44.30
2022-10-21T14:58:59.914Z,40.80
2022-10-21T15:01:32.094Z,37.70
2022-10-21T15:04:04.406Z,35.50
2022-10-21T15:06:36.988Z,66.90
2022-10-21T15:09:23.282Z,68.50
2022-10-21T15:11:55.418Z,80.80
2022-10-21T15:14:33.134Z,49.80
2022-10-21T15:17:11.177Z,39.40
2022-10-21T15:19:49.082Z,31.40
2022-10-21T15:22:28.394Z,29.20
2022-10-21T15:25:07.143Z,33.10
2022-10-21T15:27:44.123Z,54.90
2022-10-21T15:30:21.253Z,63.20
2022-10-21T15:32:55.191Z,57.50
2022-10-21T15:35:27.195Z,67.90
2022-10-21T15:37:59.142Z,113.50
2022-10-21T15:40:34.554Z,82.90
2022-10-21T15:43:06.542Z,71.20
2022-10-21T15:45:41.845Z,91.30
2022-10-21T15:48:18.442Z,104.70
2022-10-21T15:50:50.390Z,97.60
2022-10-21T15:53:22.298Z,54.30
2022-10-21T15:55:54.362Z,49.70
2022-10-21T15:58:26.363Z,113.00
2022-10-21T16:00:58.343Z,115.40
2022-10-21T16:03:30.654Z,173.50
2022-10-21T16:06:02.580Z,101.70
2022-10-21T16:08:34.592Z,116.10
2022-10-21T16:11:07.557Z,95.80
2022-10-21T16:13:39.581Z,70.10
2022-10-21T16:16:21.220Z,71.40
2022-10-21T16:18:54.131Z,77.30
2022-10-21T16:21:26.248Z,180.00
2022-10-21T16:23:58.589Z,79.90
2022-10-21T16:26:33.215Z,69.70
2022-10-21T16:29:05.241Z,117.20
2022-10-21T16:31:37.191Z,79.60
2022-10-21T16:34:09.139Z,95.70
2022-10-21T16:36:41.120Z,66.20
2022-10-21T16:39:17.179Z,62.70
2022-10-21T16:41:49.490Z,46.80
2022-10-21T16:44:21.595Z,48.50
2022-10-21T16:46:55.469Z,46.30
2022-10-21T16:49:29.596Z,70.90
2022-10-21T16:52:02.363Z,68.10
2022-10-21T16:54:35.623Z,63.30
2022-10-21T16:57:08.047Z,59.50
2022-10-21T16:59:40.060Z,64.40
2022-10-21T17:02:17.611Z,135.90
2022-10-21T17:04:49.873Z,152.50
2022-10-21T17:07:22.018Z,155.00
2022-10-21T17:09:53.970Z,134.20
2022-10-21T17:12:26.741Z,207.00
2022-10-21T17:14:58.690Z,86.00
2022-10-21T17:17:31.226Z,73.50
2022-10-21T17:20:03.305Z,56.40
2022-10-21T17:22:35.316Z,64.50
2022-10-21T17:25:08.322Z,74.50
2022-10-21T17:27:40.935Z,50.50
2022-10-21T17:30:14.834Z,97.80
2022-10-21T17:32:46.768Z,108.10
2022-10-21T17:35:19.967Z,59.30
2022-10-21T17:37:53.095Z,42.10
2022-10-21T17:40:27.281Z,79.40
2022-10-21T17:42:59.657Z,75.00
2022-10-21T17:45:31.659Z,92.50
2022-10-21T17:48:03.666Z,84.30
2022-10-21T17:50:36.536Z,188.60
2022-10-21T17:53:08.642Z,151.40
2022-10-21T17:55:40.636Z,509.40
2022-10-21T17:58:12.626Z,245.70
2022-10-21T18:00:46.214Z,364.20
2022-10-21T18:03:18.729Z,341.10
2022-10-21T18:05:50.910Z,153.70
2022-10-21T18:08:22.843Z,160.10
2022-10-21T18:10:56.350Z,137.90
2022-10-21T18:13:31.021Z,237.60
2022-10-21T18:16:06.586Z,78.90
2022-10-21T18:18:39.297Z,81.90
2022-10-21T18:21:14.247Z,83.20
2022-10-21T18:26:20.646Z,104.30
2022-10-21T18:28:54.605Z,233.00
2022-10-21T18:31:30.155Z,166.80
2022-10-21T18:34:05.115Z,66.40
2022-10-21T18:39:08.336Z,39.80
2022-10-21T18:41:40.675Z,93.10
2022-10-21T18:44:15.200Z,40.80
2022-10-21T18:46:49.232Z,35.80
2022-10-21T18:49:23.326Z,55.70
2022-10-21T18:51:55.503Z,47.50
2022-10-21T18:54:27.738Z,75.40
2022-10-21T18:56:59.707Z,81.40
2022-10-21T18:59:31.685Z,41.00
2022-10-21T19:02:04.278Z,35.50
2022-10-21T19:04:36.423Z,25.90
2022-10-21T19:07:08.336Z,25.10
2022-10-21T19:09:40.604Z,48.80
2022-10-21T19:12:16.414Z,45.00
2022-10-21T19:14:50.524Z,39.80
2022-10-21T19:17:22.558Z,39.00
2022-10-21T19:19:54.570Z,43.20
2022-10-21T19:22:26.568Z,44.20
2022-10-21T19:24:58.785Z,66.90
2022-10-21T19:27:30.793Z,56.40
2022-10-21T19:30:03.061Z,60.50
2022-10-21T19:32:35.168Z,46.00
2022-10-21T19:35:07.863Z,51.50
2022-10-21T19:37:39.999Z,45.20
2022-10-21T19:40:14.400Z,64.70
2022-10-21T19:42:46.470Z,29.30
2022-10-21T19:45:18.655Z,34.50
2022-10-21T19:47:50.597Z,39.40
2022-10-21T19:50:22.765Z,44.70
2022-10-21T19:52:54.728Z,143.40
2022-10-21T19:55:26.816Z,248.30
2022-10-21T19:57:58.756Z,100.10
2022-10-21T20:00:30.817Z,51.40
2022-10-21T20:03:02.730Z,35.30
2022-10-21T20:05:37.138Z,34.60
2022-10-21T20:08:09.160Z,117.90
2022-10-21T20:10:41.083Z,191.10
2022-10-21T20:13:13.177Z,153.70
2022-10-21T20:15:50.666Z,73.40
2022-10-21T20:18:26.413Z,62.30
2022-10-21T20:20:59.524Z,51.80
2022-10-21T20:23:31.646Z,33.50
2022-10-21T20:26:04.629Z,33.30
2022-10-21T20:28:37.057Z,43.70
2022-10-21T20:31:11.874Z,54.20
2022-10-21T20:33:45.518Z,37.50
2022-10-21T20:36:19.785Z,125.60
2022-10-21T20:38:54.147Z,67.10
2022-10-21T20:41:28.303Z,96.90
2022-10-21T20:44:00.771Z,56.90
2022-10-21T20:46:35.402Z,46.30
2022-10-21T20:49:08.827Z,31.90
2022-10-21T20:51:43.345Z,36.80
2022-10-21T20:54:17.257Z,51.30
2022-10-21T20:56:49.973Z,31.80
2022-10-21T20:59:21.949Z,58.00
2022-10-21T21:01:54.197Z,54.80
2022-10-21T21:04:26.183Z,33.90
2022-10-21T21:06:58.130Z,29.00
2022-10-21T21:09:57.346Z,29.50
2022-10-21T21:12:22.514Z,24.00
2022-10-21T21:14:54.519Z,27.70
2022-10-21T21:17:26.613Z,27.80
2022-10-21T21:19:58.645Z,36.70
2022-10-21T21:22:30.664Z,30.50
2022-10-21T21:25:02.581Z,39.30
2022-10-21T21:27:34.590Z,31.90
2022-10-21T21:30:09.377Z,19.50
2022-10-21T21:32:41.678Z,20.40
2022-10-21T21:35:14.231Z,20.40
2022-10-21T21:37:46.233Z,26.60
2022-10-21T21:40:18.359Z,21.80
2022-10-21T21:42:50.297Z,34.30
2022-10-21T21:45:22.357Z,28.00
2022-10-21T21:47:54.347Z,34.40
2022-10-21T21:50:26.515Z,34.60
2022-10-21T21:52:58.506Z,23.40
2022-10-21T21:55:30.551Z,20.70
2022-10-21T21:58:02.985Z,20.80
2022-10-21T22:00:36.055Z,26.50
2022-10-21T22:03:08.182Z,114.00
2022-10-21T22:05:40.123Z,96.50
2022-10-21T22:08:12.534Z,32.10
2022-10-21T22:10:45.394Z,33.20
2022-10-21T22:13:17.502Z,29.50
2022-10-21T22:15:49.603Z,42.20
2022-10-21T22:18:21.715Z,27.70
2022-10-21T22:20:53.646Z,22.20
2022-10-21T22:23:25.545Z,22.10
2022-10-21T22:25:58.054Z,27.00
2022-10-21T22:28:30.226Z,26.20
2022-10-21T22:31:03.870Z,28.00
2022-10-21T22:33:36.814Z,41.70
2022-10-21T22:36:11.358Z,36.00
2022-10-21T22:38:43.360Z,31.50
2022-10-21T22:41:15.475Z,23.40
2022-10-21T22:43:47.502Z,30.20
2022-10-21T22:46:33.532Z,27.50
2022-10-21T22:49:07.504Z,22.90
2022-10-21T22:51:39.613Z,24.50
2022-10-21T22:54:29.584Z,30.00
2022-10-21T22:57:04.011Z,22.60
2022-10-21T22:59:37.582Z,23.20
2022-10-21T23:02:09.566Z,21.40
2022-10-21T23:04:41.547Z,23.60
2022-10-21T23:07:13.592Z,23.40
2022-10-21T23:09:45.566Z,32.20
2022-10-21T23:12:17.615Z,30.70
2022-10-21T23:14:49.638Z,46.90
2022-10-21T23:17:21.491Z,41.80
2022-10-21T23:19:53.436Z,30.50
2022-10-21T23:22:25.461Z,47.90
2022-10-21T23:24:57.475Z,24.30
2022-10-21T23:27:29.407Z,26.20
2022-10-21T23:30:01.415Z,21.30
2022-10-21T23:32:33.445Z,22.70
2022-10-21T23:35:06.059Z,20.40
2022-10-21T23:37:38.572Z,20.20
2022-10-21T23:40:13.549Z,21.20
2022-10-21T23:42:45.479Z,22.60
2022-10-21T23:45:17.442Z,23.00
2022-10-21T23:47:49.393Z,22.10
2022-10-21T23:50:21.598Z,57.30
2022-10-21T23:52:53.578Z,23.80
2022-10-21T23:55:25.667Z,25.90
2022-10-21T23:57:57.886Z,23.10
